sensor_id;sensor_type;location;lat;lon;timestamp;P1;durP1;ratioP1;P2;durP2;ratioP2
64282;SDS011;50497;50.720;-2.084;2022-08-01T00:00:46;6.65;;;3.20;;
64282;SDS011;50497;50.720;-2.084;2022-08-01T00:03:11;5.80;;;2.72;;
64282;SDS011;50497;50.720;-2.084;2022-08-01T00:05:41;5.53;;;2.70;;
64282;SDS011;50497;50.720;-2.084;2022-08-01T00:08:08;6.05;;;2.58;;
64282;SDS011;50497;50.720;-2.084;2022-08-01T00:10:34;6.10;;;2.65;;
64282;SDS011;50497;50.720;-2.084;2022-08-01T00:12:59;5.13;;;2.60;;
64282;SDS011;50497;50.720;-2.084;2022-08-01T00:15:25;8.07;;;2.80;;
64282;SDS011;50497;50.720;-2.084;2022-08-01T00:17:54;6.38;;;2.60;;
64282;SDS011;50497;50.720;-2.084;2022-08-01T00:20:19;5.43;;;2.70;;
64282;SDS011;50497;50.720;-2.084;2022-08-01T00:22:45;6.10;;;2.85;;
64282;SDS011;50497;50.720;-2.084;2022-08-01T00:25:10;6.97;;;2.70;;
64282;SDS011;50497;50.720;-2.084;2022-08-01T00:27:36;6.13;;;2.65;;
64282;SDS011;50497;50.720;-2.084;2022-08-01T00:30:02;6.97;;;2.80;;
64282;SDS011;50497;50.720;-2.084;2022-08-01T00:32:30;5.85;;;2.70;;
64282;SDS011;50497;50.720;-2.084;2022-08-01T00:34:59;5.10;;;2.55;;
64282;SDS011;50497;50.720;-2.084;2022-08-01T00:37:25;5.95;;;2.65;;
64282;SDS011;50497;50.720;-2.084;2022-08-01T00:39:52;7.30;;;2.78;;
64282;SDS011;50497;50.720;-2.084;2022-08-01T00:42:17;6.18;;;2.70;;
64282;SDS011;50497;50.720;-2.084;2022-08-01T00:44:46;5.38;;;2.70;;
64282;SDS011;50497;50.720;-2.084;2022-08-01T00:47:12;5.72;;;2.70;;
64282;SDS011;50497;50.720;-2.084;2022-08-01T00:49:40;6.07;;;2.72;;
64282;SDS011;50497;50.720;-2.084;2022-08-01T00:52:07;5.60;;;2.70;;
64282;SDS011;50497;50.720;-2.084;2022-08-01T00:54:34;5.97;;;2.55;;
64282;SDS011;50497;50.720;-2.084;2022-08-01T00:57:07;5.97;;;2.75;;
64282;SDS011;50497;50.720;-2.084;2022-08-01T00:59:33;6.00;;;2.78;;
64282;SDS011;50497;50.720;-2.084;2022-08-01T01:02:04;6.25;;;2.70;;
64282;SDS011;50497;50.720;-2.084;2022-08-01T01:04:36;5.93;;;2.55;;
64282;SDS011;50497;50.720;-2.084;2022-08-01T01:10:02;6.20;;;2.70;;
64282;SDS011;50497;50.720;-2.084;2022-08-01T01:12:44;7.03;;;2.63;;
64282;SDS011;50497;50.720;-2.084;2022-08-01T01:15:29;6.63;;;2.78;;
64282;SDS011;50497;50.720;-2.084;2022-08-01T01:18:03;5.65;;;2.65;;
64282;SDS011;50497;50.720;-2.084;2022-08-01T01:20:44;5.82;;;2.42;;
64282;SDS011;50497;50.720;-2.084;2022-08-01T01:29:17;7.53;;;2.60;;
64282;SDS011;50497;50.720;-2.084;2022-08-01T01:35:05;5.82;;;2.42;;
64282;SDS011;50497;50.720;-2.084;2022-08-01T01:40:39;6.95;;;2.55;;
64282;SDS011;50497;50.720;-2.084;2022-08-01T01:43:17;7.68;;;2.83;;
64282;SDS011;50497;50.720;-2.084;2022-08-01T01:45:47;5.75;;;2.45;;
64282;SDS011;50497;50.720;-2.084;2022-08-01T01:48:19;6.07;;;2.60;;
64282;SDS011;50497;50.720;-2.084;2022-08-01T01:50:51;6.15;;;2.60;;
64282;SDS011;50497;50.720;-2.084;2022-08-01T01:53:18;7.72;;;2.80;;
64282;SDS011;50497;50.720;-2.084;2022-08-01T01:55:48;6.63;;;2.78;;
64282;SDS011;50497;50.720;-2.084;2022-08-01T01:58:19;5.15;;;2.58;;
64282;SDS011;50497;50.720;-2.084;2022-08-01T02:00:55;6.07;;;2.97;;
64282;SDS011;50497;50.720;-2.084;2022-08-01T02:03:31;6.47;;;2.80;;
64282;SDS011;50497;50.720;-2.084;2022-08-01T02:06:04;6.22;;;2.72;;
64282;SDS011;50497;50.720;-2.084;2022-08-01T02:08:32;6.75;;;2.70;;
64282;SDS011;50497;50.720;-2.084;2022-08-01T02:11:06;8.05;;;2.72;;
64282;SDS011;50497;50.720;-2.084;2022-08-01T02:14:00;6.65;;;2.97;;
64282;SDS011;50497;50.720;-2.084;2022-08-01T02:16:36;6.60;;;2.67;;
64282;SDS011;50497;50.720;-2.084;2022-08-01T02:19:20;6.97;;;2.85;;
64282;SDS011;50497;50.720;-2.084;2022-08-01T02:22:09;8.25;;;2.70;;
64282;SDS011;50497;50.720;-2.084;2022-08-01T02:24:54;5.85;;;2.85;;
64282;SDS011;50497;50.720;-2.084;2022-08-01T02:27:39;6.53;;;2.95;;
64282;SDS011;50497;50.720;-2.084;2022-08-01T02:30:10;7.78;;;2.70;;
64282;SDS011;50497;50.720;-2.084;2022-08-01T02:32:41;5.90;;;2.70;;
64282;SDS011;50497;50.720;-2.084;2022-08-01T02:35:18;6.68;;;2.83;;
64282;SDS011;50497;50.720;-2.084;2022-08-01T02:37:50;5.35;;;2.67;;
64282;SDS011;50497;50.720;-2.084;2022-08-01T02:40:23;5.97;;;2.72;;
64282;SDS011;50497;50.720;-2.084;2022-08-01T02:42:57;7.05;;;2.85;;
64282;SDS011;50497;50.720;-2.084;2022-08-01T02:45:47;7.07;;;2.80;;
64282;SDS011;50497;50.720;-2.084;2022-08-01T02:48:25;7.63;;;2.90;;
64282;SDS011;50497;50.720;-2.084;2022-08-01T02:50:54;8.48;;;3.10;;
64282;SDS011;50497;50.720;-2.084;2022-08-01T02:53:28;6.95;;;2.78;;
64282;SDS011;50497;50.720;-2.084;2022-08-01T02:56:00;6.68;;;3.00;;
64282;SDS011;50497;50.720;-2.084;2022-08-01T02:58:31;7.38;;;2.67;;
64282;SDS011;50497;50.720;-2.084;2022-08-01T03:01:06;7.55;;;2.60;;
64282;SDS011;50497;50.720;-2.084;2022-08-01T03:03:37;5.43;;;2.42;;
64282;SDS011;50497;50.720;-2.084;2022-08-01T03:06:03;8.20;;;2.80;;
64282;SDS011;50497;50.720;-2.084;2022-08-01T03:08:30;7.88;;;2.92;;
64282;SDS011;50497;50.720;-2.084;2022-08-01T03:10:57;6.68;;;2.88;;
64282;SDS011;50497;50.720;-2.084;2022-08-01T03:13:25;7.35;;;2.80;;
64282;SDS011;50497;50.720;-2.084;2022-08-01T03:15:52;8.20;;;2.90;;
64282;SDS011;50497;50.720;-2.084;2022-08-01T03:18:20;5.45;;;2.60;;
64282;SDS011;50497;50.720;-2.084;2022-08-01T03:20:57;6.10;;;2.65;;
64282;SDS011;50497;50.720;-2.084;2022-08-01T03:23:33;6.63;;;2.92;;
64282;SDS011;50497;50.720;-2.084;2022-08-01T03:28:31;8.73;;;2.90;;
64282;SDS011;50497;50.720;-2.084;2022-08-01T03:30:58;7.00;;;2.70;;
64282;SDS011;50497;50.720;-2.084;2022-08-01T03:33:25;6.68;;;2.83;;
64282;SDS011;50497;50.720;-2.084;2022-08-01T03:38:21;6.35;;;2.67;;
64282;SDS011;50497;50.720;-2.084;2022-08-01T03:40:53;5.82;;;2.80;;
64282;SDS011;50497;50.720;-2.084;2022-08-01T03:43:41;6.70;;;2.63;;
64282;SDS011;50497;50.720;-2.084;2022-08-01T03:46:30;6.60;;;2.92;;
64282;SDS011;50497;50.720;-2.084;2022-08-01T03:49:21;8.75;;;3.08;;
64282;SDS011;50497;50.720;-2.084;2022-08-01T03:51:50;8.10;;;3.10;;
64282;SDS011;50497;50.720;-2.084;2022-08-01T03:54:25;8.20;;;3.40;;
64282;SDS011;50497;50.720;-2.084;2022-08-01T03:57:02;7.35;;;2.90;;
64282;SDS011;50497;50.720;-2.084;2022-08-01T03:59:29;7.97;;;3.13;;
64282;SDS011;50497;50.720;-2.084;2022-08-01T04:01:56;7.68;;;3.28;;
64282;SDS011;50497;50.720;-2.084;2022-08-01T04:04:23;7.05;;;3.30;;
64282;SDS011;50497;50.720;-2.084;2022-08-01T04:06:49;7.03;;;3.03;;
64282;SDS011;50497;50.720;-2.084;2022-08-01T04:09:19;7.53;;;3.25;;
64282;SDS011;50497;50.720;-2.084;2022-08-01T04:11:46;7.68;;;3.10;;
64282;SDS011;50497;50.720;-2.084;2022-08-01T04:14:12;6.43;;;3.10;;
64282;SDS011;50497;50.720;-2.084;2022-08-01T04:16:41;7.75;;;3.40;;
64282;SDS011;50497;50.720;-2.084;2022-08-01T04:19:07;9.13;;;3.38;;
64282;SDS011;50497;50.720;-2.084;2022-08-01T04:21:32;7.13;;;3.40;;
64282;SDS011;50497;50.720;-2.084;2022-08-01T04:24:07;7.47;;;3.53;;
64282;SDS011;50497;50.720;-2.084;2022-08-01T04:26:38;7.57;;;3.40;;
64282;SDS011;50497;50.720;-2.084;2022-08-01T04:29:05;6.53;;;3.10;;
64282;SDS011;50497;50.720;-2.084;2022-08-01T04:31:33;7.30;;;3.17;;
64282;SDS011;50497;50.720;-2.084;2022-08-01T04:34:01;9.18;;;3.50;;
64282;SDS011;50497;50.720;-2.084;2022-08-01T04:36:30;8.15;;;3.38;;
64282;SDS011;50497;50.720;-2.084;2022-08-01T04:39:02;6.90;;;3.33;;
64282;SDS011;50497;50.720;-2.084;2022-08-01T04:41:33;8.18;;;3.42;;
64282;SDS011;50497;50.720;-2.084;2022-08-01T04:44:00;7.45;;;3.25;;
64282;SDS011;50497;50.720;-2.084;2022-08-01T04:46:28;8.02;;;3.33;;
64282;SDS011;50497;50.720;-2.084;2022-08-01T04:48:54;6.28;;;3.20;;
64282;SDS011;50497;50.720;-2.084;2022-08-01T04:51:21;7.93;;;3.38;;
64282;SDS011;50497;50.720;-2.084;2022-08-01T04:56:13;7.57;;;3.25;;
64282;SDS011;50497;50.720;-2.084;2022-08-01T04:58:42;7.78;;;3.58;;
64282;SDS011;50497;50.720;-2.084;2022-08-01T05:01:08;8.45;;;3.70;;
64282;SDS011;50497;50.720;-2.084;2022-08-01T05:03:38;8.98;;;3.20;;
64282;SDS011;50497;50.720;-2.084;2022-08-01T05:06:10;6.18;;;2.90;;
64282;SDS011;50497;50.720;-2.084;2022-08-01T05:08:36;5.93;;;3.20;;
64282;SDS011;50497;50.720;-2.084;2022-08-01T05:11:01;7.15;;;2.80;;
64282;SDS011;50497;50.720;-2.084;2022-08-01T05:13:27;6.72;;;3.33;;
64282;SDS011;50497;50.720;-2.084;2022-08-01T05:15:52;7.03;;;2.95;;
64282;SDS011;50497;50.720;-2.084;2022-08-01T05:18:18;7.00;;;3.40;;
64282;SDS011;50497;50.720;-2.084;2022-08-01T05:20:44;6.90;;;3.25;;
64282;SDS011;50497;50.720;-2.084;2022-08-01T05:23:09;7.13;;;2.83;;
64282;SDS011;50497;50.720;-2.084;2022-08-01T05:25:38;5.50;;;2.85;;
64282;SDS011;50497;50.720;-2.084;2022-08-01T05:28:04;6.20;;;3.00;;
64282;SDS011;50497;50.720;-2.084;2022-08-01T05:30:29;8.45;;;3.10;;
64282;SDS011;50497;50.720;-2.084;2022-08-01T05:32:55;5.90;;;3.00;;
64282;SDS011;50497;50.720;-2.084;2022-08-01T05:35:21;5.72;;;2.88;;
64282;SDS011;50497;50.720;-2.084;2022-08-01T05:37:50;5.78;;;2.55;;
64282;SDS011;50497;50.720;-2.084;2022-08-01T05:40:16;5.72;;;2.50;;
64282;SDS011;50497;50.720;-2.084;2022-08-01T05:42:41;6.90;;;2.70;;
64282;SDS011;50497;50.720;-2.084;2022-08-01T05:45:07;7.43;;;2.80;;
64282;SDS011;50497;50.720;-2.084;2022-08-01T05:47:33;5.43;;;2.60;;
64282;SDS011;50497;50.720;-2.084;2022-08-01T05:49:59;5.60;;;2.28;;
64282;SDS011;50497;50.720;-2.084;2022-08-01T05:52:24;4.90;;;2.53;;
64282;SDS011;50497;50.720;-2.084;2022-08-01T05:54:50;5.55;;;2.78;;
64282;SDS011;50497;50.720;-2.084;2022-08-01T05:57:19;6.25;;;2.63;;
64282;SDS011;50497;50.720;-2.084;2022-08-01T05:59:44;5.75;;;2.60;;
64282;SDS011;50497;50.720;-2.084;2022-08-01T06:02:12;5.75;;;2.55;;
64282;SDS011;50497;50.720;-2.084;2022-08-01T06:04:38;4.90;;;2.53;;
64282;SDS011;50497;50.720;-2.084;2022-08-01T06:07:06;7.25;;;2.90;;
64282;SDS011;50497;50.720;-2.084;2022-08-01T06:09:31;7.18;;;2.75;;
64282;SDS011;50497;50.720;-2.084;2022-08-01T06:11:57;6.18;;;2.53;;
64282;SDS011;50497;50.720;-2.084;2022-08-01T06:14:23;5.43;;;2.53;;
64282;SDS011;50497;50.720;-2.084;2022-08-01T06:16:48;5.82;;;2.50;;
64282;SDS011;50497;50.720;-2.084;2022-08-01T06:19:14;6.55;;;2.92;;
64282;SDS011;50497;50.720;-2.084;2022-08-01T06:21:43;5.15;;;2.47;;
64282;SDS011;50497;50.720;-2.084;2022-08-01T06:24:09;5.90;;;2.50;;
64282;SDS011;50497;50.720;-2.084;2022-08-01T06:26:35;6.50;;;2.60;;
64282;SDS011;50497;50.720;-2.084;2022-08-01T06:29:02;4.45;;;2.00;;
64282;SDS011;50497;50.720;-2.084;2022-08-01T06:31:27;5.72;;;2.33;;
64282;SDS011;50497;50.720;-2.084;2022-08-01T06:33:53;4.90;;;2.30;;
64282;SDS011;50497;50.720;-2.084;2022-08-01T06:36:22;5.50;;;2.38;;
64282;SDS011;50497;50.720;-2.084;2022-08-01T06:38:47;5.90;;;2.30;;
64282;SDS011;50497;50.720;-2.084;2022-08-01T06:41:13;6.53;;;2.30;;
64282;SDS011;50497;50.720;-2.084;2022-08-01T06:43:42;5.35;;;2.35;;
64282;SDS011;50497;50.720;-2.084;2022-08-01T06:46:07;6.55;;;2.28;;
64282;SDS011;50497;50.720;-2.084;2022-08-01T06:48:33;4.68;;;2.22;;
64282;SDS011;50497;50.720;-2.084;2022-08-01T06:51:00;5.40;;;2.20;;
64282;SDS011;50497;50.720;-2.084;2022-08-01T06:53:38;6.07;;;2.50;;
64282;SDS011;50497;50.720;-2.084;2022-08-01T06:56:04;6.53;;;2.22;;
64282;SDS011;50497;50.720;-2.084;2022-08-01T06:58:31;5.28;;;2.50;;
64282;SDS011;50497;50.720;-2.084;2022-08-01T07:00:56;5.32;;;2.50;;
64282;SDS011;50497;50.720;-2.084;2022-08-01T07:03:22;6.43;;;2.45;;
64282;SDS011;50497;50.720;-2.084;2022-08-01T07:05:48;7.55;;;2.50;;
64282;SDS011;50497;50.720;-2.084;2022-08-01T07:08:13;7.80;;;2.25;;
64282;SDS011;50497;50.720;-2.084;2022-08-01T07:10:38;4.88;;;2.20;;
64282;SDS011;50497;50.720;-2.084;2022-08-01T07:13:04;4.22;;;2.10;;
64282;SDS011;50497;50.720;-2.084;2022-08-01T07:15:30;5.40;;;2.10;;
64282;SDS011;50497;50.720;-2.084;2022-08-01T07:17:56;13.55;;;2.90;;
64282;SDS011;50497;50.720;-2.084;2022-08-01T07:20:23;5.68;;;2.25;;
64282;SDS011;50497;50.720;-2.084;2022-08-01T07:22:49;5.57;;;2.30;;
64282;SDS011;50497;50.720;-2.084;2022-08-01T07:25:15;4.28;;;2.03;;
64282;SDS011;50497;50.720;-2.084;2022-08-01T07:27:40;4.75;;;2.28;;
64282;SDS011;50497;50.720;-2.084;2022-08-01T07:32:31;7.18;;;2.03;;
64282;SDS011;50497;50.720;-2.084;2022-08-01T07:34:58;4.97;;;2.03;;
64282;SDS011;50497;50.720;-2.084;2022-08-01T07:39:50;4.43;;;2.00;;
64282;SDS011;50497;50.720;-2.084;2022-08-01T07:42:16;5.60;;;2.40;;
64282;SDS011;50497;50.720;-2.084;2022-08-01T07:47:07;4.38;;;1.77;;
64282;SDS011;50497;50.720;-2.084;2022-08-01T07:52:04;4.25;;;1.88;;
64282;SDS011;50497;50.720;-2.084;2022-08-01T07:56:58;5.50;;;2.00;;
64282;SDS011;50497;50.720;-2.084;2022-08-01T08:01:49;7.57;;;2.00;;
64282;SDS011;50497;50.720;-2.084;2022-08-01T08:04:16;6.72;;;2.25;;
64282;SDS011;50497;50.720;-2.084;2022-08-01T08:06:42;4.25;;;2.03;;
64282;SDS011;50497;50.720;-2.084;2022-08-01T08:09:09;7.15;;;2.30;;
64282;SDS011;50497;50.720;-2.084;2022-08-01T08:11:35;4.50;;;1.90;;
64282;SDS011;50497;50.720;-2.084;2022-08-01T08:14:00;5.80;;;1.88;;
64282;SDS011;50497;50.720;-2.084;2022-08-01T08:16:26;4.25;;;1.98;;
64282;SDS011;50497;50.720;-2.084;2022-08-01T08:21:17;4.28;;;2.03;;
64282;SDS011;50497;50.720;-2.084;2022-08-01T08:23:43;5.25;;;1.95;;
64282;SDS011;50497;50.720;-2.084;2022-08-01T08:26:27;5.18;;;1.98;;
64282;SDS011;50497;50.720;-2.084;2022-08-01T08:28:53;4.53;;;2.30;;
64282;SDS011;50497;50.720;-2.084;2022-08-01T08:31:18;5.13;;;2.00;;
64282;SDS011;50497;50.720;-2.084;2022-08-01T08:33:43;6.03;;;2.00;;
64282;SDS011;50497;50.720;-2.084;2022-08-01T08:36:09;5.10;;;2.17;;
64282;SDS011;50497;50.720;-2.084;2022-08-01T08:38:36;4.15;;;2.00;;
64282;SDS011;50497;50.720;-2.084;2022-08-01T08:41:02;4.75;;;2.00;;
64282;SDS011;50497;50.720;-2.084;2022-08-01T08:43:27;4.90;;;1.98;;
64282;SDS011;50497;50.720;-2.084;2022-08-01T08:45:54;6.10;;;2.28;;
64282;SDS011;50497;50.720;-2.084;2022-08-01T08:48:21;4.57;;;1.95;;
64282;SDS011;50497;50.720;-2.084;2022-08-01T08:50:47;5.63;;;2.30;;
64282;SDS011;50497;50.720;-2.084;2022-08-01T08:53:14;3.85;;;1.95;;
64282;SDS011;50497;50.720;-2.084;2022-08-01T08:55:44;4.82;;;2.10;;
64282;SDS011;50497;50.720;-2.084;2022-08-01T08:58:13;3.88;;;2.10;;
64282;SDS011;50497;50.720;-2.084;2022-08-01T09:00:42;4.57;;;2.30;;
64282;SDS011;50497;50.720;-2.084;2022-08-01T09:03:08;5.45;;;2.25;;
64282;SDS011;50497;50.720;-2.084;2022-08-01T09:05:34;4.93;;;2.03;;
64282;SDS011;50497;50.720;-2.084;2022-08-01T09:07:59;5.60;;;2.45;;
64282;SDS011;50497;50.720;-2.084;2022-08-01T09:10:25;7.35;;;2.50;;
64282;SDS011;50497;50.720;-2.084;2022-08-01T09:13:07;5.55;;;2.55;;
64282;SDS011;50497;50.720;-2.084;2022-08-01T09:15:45;5.68;;;2.40;;
64282;SDS011;50497;50.720;-2.084;2022-08-01T09:26:17;4.85;;;2.60;;
64282;SDS011;50497;50.720;-2.084;2022-08-01T09:28:46;5.03;;;2.63;;
64282;SDS011;50497;50.720;-2.084;2022-08-01T09:31:16;5.63;;;2.60;;
64282;SDS011;50497;50.720;-2.084;2022-08-01T09:34:00;5.78;;;3.08;;
64282;SDS011;50497;50.720;-2.084;2022-08-01T09:39:20;5.95;;;3.40;;
64282;SDS011;50497;50.720;-2.084;2022-08-01T09:41:57;8.82;;;3.65;;
64282;SDS011;50497;50.720;-2.084;2022-08-01T09:47:06;8.10;;;4.55;;
64282;SDS011;50497;50.720;-2.084;2022-08-01T09:49:33;7.40;;;3.53;;
64282;SDS011;50497;50.720;-2.084;2022-08-01T09:52:36;8.93;;;3.50;;
64282;SDS011;50497;50.720;-2.084;2022-08-01T09:54:55;6.95;;;4.32;;
64282;SDS011;50497;50.720;-2.084;2022-08-01T09:57:23;6.68;;;4.57;;
64282;SDS011;50497;50.720;-2.084;2022-08-01T09:59:50;6.40;;;4.00;;
64282;SDS011;50497;50.720;-2.084;2022-08-01T10:05:03;12.48;;;4.53;;
64282;SDS011;50497;50.720;-2.084;2022-08-01T10:07:30;13.73;;;6.63;;
64282;SDS011;50497;50.720;-2.084;2022-08-01T10:10:01;11.13;;;6.10;;
64282;SDS011;50497;50.720;-2.084;2022-08-01T10:12:35;8.95;;;5.13;;
64282;SDS011;50497;50.720;-2.084;2022-08-01T10:15:02;7.45;;;3.60;;
64282;SDS011;50497;50.720;-2.084;2022-08-01T10:17:29;6.13;;;3.40;;
64282;SDS011;50497;50.720;-2.084;2022-08-01T10:19:55;5.10;;;2.95;;
64282;SDS011;50497;50.720;-2.084;2022-08-01T10:22:24;6.00;;;3.33;;
64282;SDS011;50497;50.720;-2.084;2022-08-01T10:24:52;8.75;;;4.85;;
64282;SDS011;50497;50.720;-2.084;2022-08-01T10:27:20;6.20;;;3.47;;
64282;SDS011;50497;50.720;-2.084;2022-08-01T10:30:01;21.70;;;4.75;;
64282;SDS011;50497;50.720;-2.084;2022-08-01T10:32:30;6.55;;;3.38;;
64282;SDS011;50497;50.720;-2.084;2022-08-01T10:34:56;5.75;;;3.20;;
64282;SDS011;50497;50.720;-2.084;2022-08-01T10:37:25;5.95;;;3.30;;
64282;SDS011;50497;50.720;-2.084;2022-08-01T10:39:53;5.20;;;3.30;;
64282;SDS011;50497;50.720;-2.084;2022-08-01T10:42:20;5.75;;;3.00;;
64282;SDS011;50497;50.720;-2.084;2022-08-01T10:44:46;5.97;;;2.90;;
64282;SDS011;50497;50.720;-2.084;2022-08-01T10:47:21;5.35;;;2.80;;
64282;SDS011;50497;50.720;-2.084;2022-08-01T10:49:56;5.43;;;2.70;;
64282;SDS011;50497;50.720;-2.084;2022-08-01T10:52:24;7.65;;;3.00;;
64282;SDS011;50497;50.720;-2.084;2022-08-01T10:54:49;6.93;;;3.25;;
64282;SDS011;50497;50.720;-2.084;2022-08-01T10:57:50;6.43;;;3.85;;
64282;SDS011;50497;50.720;-2.084;2022-08-01T11:00:20;10.60;;;4.50;;
64282;SDS011;50497;50.720;-2.084;2022-08-01T11:02:59;8.48;;;3.60;;
64282;SDS011;50497;50.720;-2.084;2022-08-01T11:05:33;9.15;;;3.00;;
64282;SDS011;50497;50.720;-2.084;2022-08-01T11:08:21;9.43;;;3.15;;
64282;SDS011;50497;50.720;-2.084;2022-08-01T11:10:50;4.60;;;2.60;;
64282;SDS011;50497;50.720;-2.084;2022-08-01T11:14:10;6.13;;;3.00;;
64282;SDS011;50497;50.720;-2.084;2022-08-01T11:16:38;5.47;;;3.10;;
64282;SDS011;50497;50.720;-2.084;2022-08-01T11:19:05;5.95;;;3.10;;
64282;SDS011;50497;50.720;-2.084;2022-08-01T11:27:20;7.93;;;3.17;;
64282;SDS011;50497;50.720;-2.084;2022-08-01T11:32:54;5.93;;;3.03;;
64282;SDS011;50497;50.720;-2.084;2022-08-01T11:35:26;4.97;;;2.67;;
64282;SDS011;50497;50.720;-2.084;2022-08-01T11:37:53;6.63;;;2.42;;
64282;SDS011;50497;50.720;-2.084;2022-08-01T11:40:23;4.70;;;2.30;;
64282;SDS011;50497;50.720;-2.084;2022-08-01T11:48:19;5.13;;;2.45;;
64282;SDS011;50497;50.720;-2.084;2022-08-01T11:50:52;5.47;;;2.20;;
64282;SDS011;50497;50.720;-2.084;2022-08-01T11:53:19;6.22;;;2.10;;
64282;SDS011;50497;50.720;-2.084;2022-08-01T11:55:49;3.78;;;2.05;;
64282;SDS011;50497;50.720;-2.084;2022-08-01T11:58:21;6.97;;;2.40;;
64282;SDS011;50497;50.720;-2.084;2022-08-01T12:00:51;6.00;;;2.10;;
64282;SDS011;50497;50.720;-2.084;2022-08-01T12:03:22;3.60;;;1.95;;
64282;SDS011;50497;50.720;-2.084;2022-08-01T12:05:52;4.18;;;2.20;;
64282;SDS011;50497;50.720;-2.084;2022-08-01T12:08:28;6.75;;;2.10;;
64282;SDS011;50497;50.720;-2.084;2022-08-01T12:10:57;4.70;;;2.10;;
64282;SDS011;50497;50.720;-2.084;2022-08-01T12:13:23;7.93;;;2.40;;
64282;SDS011;50497;50.720;-2.084;2022-08-01T12:15:49;4.90;;;2.20;;
64282;SDS011;50497;50.720;-2.084;2022-08-01T12:18:16;5.10;;;1.95;;
64282;SDS011;50497;50.720;-2.084;2022-08-01T12:20:43;10.52;;;2.58;;
64282;SDS011;50497;50.720;-2.084;2022-08-01T12:23:14;28.83;;;3.30;;
64282;SDS011;50497;50.720;-2.084;2022-08-01T12:25:41;25.17;;;4.43;;
64282;SDS011;50497;50.720;-2.084;2022-08-01T12:28:11;4.75;;;2.13;;
64282;SDS011;50497;50.720;-2.084;2022-08-01T12:30:43;3.78;;;1.90;;
64282;SDS011;50497;50.720;-2.084;2022-08-01T12:33:16;5.00;;;2.00;;
64282;SDS011;50497;50.720;-2.084;2022-08-01T12:35:45;4.07;;;2.10;;
64282;SDS011;50497;50.720;-2.084;2022-08-01T12:38:15;4.55;;;1.92;;
64282;SDS011;50497;50.720;-2.084;2022-08-01T12:43:15;7.40;;;2.13;;
64282;SDS011;50497;50.720;-2.084;2022-08-01T12:45:47;3.95;;;1.80;;
64282;SDS011;50497;50.720;-2.084;2022-08-01T12:48:15;5.13;;;1.80;;
64282;SDS011;50497;50.720;-2.084;2022-08-01T12:50:47;5.45;;;1.85;;
64282;SDS011;50497;50.720;-2.084;2022-08-01T12:53:17;5.28;;;1.95;;
64282;SDS011;50497;50.720;-2.084;2022-08-01T12:55:47;6.53;;;2.03;;
64282;SDS011;50497;50.720;-2.084;2022-08-01T12:58:15;2.90;;;1.67;;
64282;SDS011;50497;50.720;-2.084;2022-08-01T13:00:46;3.63;;;1.70;;
64282;SDS011;50497;50.720;-2.084;2022-08-01T13:08:32;5.25;;;1.60;;
64282;SDS011;50497;50.720;-2.084;2022-08-01T13:11:07;3.25;;;1.60;;
64282;SDS011;50497;50.720;-2.084;2022-08-01T13:13:42;4.03;;;1.60;;
64282;SDS011;50497;50.720;-2.084;2022-08-01T13:16:12;4.00;;;1.60;;
64282;SDS011;50497;50.720;-2.084;2022-08-01T13:18:38;3.85;;;1.63;;
64282;SDS011;50497;50.720;-2.084;2022-08-01T13:23:39;3.38;;;1.60;;
64282;SDS011;50497;50.720;-2.084;2022-08-01T13:26:05;5.22;;;2.40;;
64282;SDS011;50497;50.720;-2.084;2022-08-01T13:28:32;11.18;;;2.10;;
64282;SDS011;50497;50.720;-2.084;2022-08-01T13:33:24;2.92;;;1.60;;
64282;SDS011;50497;50.720;-2.084;2022-08-01T13:35:55;2.90;;;1.42;;
64282;SDS011;50497;50.720;-2.084;2022-08-01T13:38:24;4.22;;;1.70;;
64282;SDS011;50497;50.720;-2.084;2022-08-01T13:41:08;4.13;;;1.70;;
64282;SDS011;50497;50.720;-2.084;2022-08-01T13:43:34;3.30;;;1.60;;
64282;SDS011;50497;50.720;-2.084;2022-08-01T13:46:00;4.40;;;1.58;;
64282;SDS011;50497;50.720;-2.084;2022-08-01T13:48:28;3.45;;;1.50;;
64282;SDS011;50497;50.720;-2.084;2022-08-01T13:50:57;6.07;;;1.70;;
64282;SDS011;50497;50.720;-2.084;2022-08-01T13:53:23;4.85;;;1.85;;
64282;SDS011;50497;50.720;-2.084;2022-08-01T13:55:49;3.97;;;1.73;;
64282;SDS011;50497;50.720;-2.084;2022-08-01T13:58:17;6.43;;;1.70;;
64282;SDS011;50497;50.720;-2.084;2022-08-01T14:00:42;4.25;;;1.70;;
64282;SDS011;50497;50.720;-2.084;2022-08-01T14:03:08;3.55;;;1.45;;
64282;SDS011;50497;50.720;-2.084;2022-08-01T14:05:37;4.07;;;1.70;;
64282;SDS011;50497;50.720;-2.084;2022-08-01T14:08:03;3.45;;;1.42;;
64282;SDS011;50497;50.720;-2.084;2022-08-01T14:10:33;3.53;;;1.70;;
64282;SDS011;50497;50.720;-2.084;2022-08-01T14:12:59;4.90;;;1.80;;
64282;SDS011;50497;50.720;-2.084;2022-08-01T14:15:25;4.50;;;1.60;;
64282;SDS011;50497;50.720;-2.084;2022-08-01T14:17:50;5.10;;;1.75;;
64282;SDS011;50497;50.720;-2.084;2022-08-01T14:20:17;3.95;;;1.50;;
64282;SDS011;50497;50.720;-2.084;2022-08-01T14:22:47;4.53;;;1.70;;
64282;SDS011;50497;50.720;-2.084;2022-08-01T14:25:16;4.90;;;1.70;;
64282;SDS011;50497;50.720;-2.084;2022-08-01T14:27:43;4.18;;;1.75;;
64282;SDS011;50497;50.720;-2.084;2022-08-01T14:30:10;5.05;;;1.63;;
64282;SDS011;50497;50.720;-2.084;2022-08-01T14:32:36;3.42;;;1.75;;
64282;SDS011;50497;50.720;-2.084;2022-08-01T14:35:02;6.53;;;1.83;;
64282;SDS011;50497;50.720;-2.084;2022-08-01T14:37:30;6.72;;;2.00;;
64282;SDS011;50497;50.720;-2.084;2022-08-01T14:39:56;4.95;;;1.80;;
64282;SDS011;50497;50.720;-2.084;2022-08-01T14:42:22;4.03;;;1.70;;
64282;SDS011;50497;50.720;-2.084;2022-08-01T14:44:47;4.00;;;1.80;;
64282;SDS011;50497;50.720;-2.084;2022-08-01T14:47:13;4.53;;;1.80;;
64282;SDS011;50497;50.720;-2.084;2022-08-01T14:49:39;6.10;;;2.00;;
64282;SDS011;50497;50.720;-2.084;2022-08-01T14:52:04;7.30;;;2.22;;
64282;SDS011;50497;50.720;-2.084;2022-08-01T14:54:30;4.63;;;1.90;;
64282;SDS011;50497;50.720;-2.084;2022-08-01T14:56:55;4.30;;;2.00;;
64282;SDS011;50497;50.720;-2.084;2022-08-01T14:59:21;11.13;;;2.70;;
64282;SDS011;50497;50.720;-2.084;2022-08-01T15:01:46;5.07;;;2.22;;
64282;SDS011;50497;50.720;-2.084;2022-08-01T15:04:12;3.58;;;1.90;;
64282;SDS011;50497;50.720;-2.084;2022-08-01T15:06:38;3.30;;;1.90;;
64282;SDS011;50497;50.720;-2.084;2022-08-01T15:09:03;5.38;;;1.80;;
64282;SDS011;50497;50.720;-2.084;2022-08-01T15:11:29;17.23;;;2.38;;
64282;SDS011;50497;50.720;-2.084;2022-08-01T15:13:54;6.95;;;2.20;;
64282;SDS011;50497;50.720;-2.084;2022-08-01T15:16:38;7.47;;;2.20;;
64282;SDS011;50497;50.720;-2.084;2022-08-01T15:19:04;5.65;;;2.30;;
64282;SDS011;50497;50.720;-2.084;2022-08-01T15:21:30;3.80;;;1.80;;
64282;SDS011;50497;50.720;-2.084;2022-08-01T15:23:55;5.30;;;2.30;;
64282;SDS011;50497;50.720;-2.084;2022-08-01T15:26:21;5.75;;;2.13;;
64282;SDS011;50497;50.720;-2.084;2022-08-01T15:28:46;5.63;;;1.77;;
64282;SDS011;50497;50.720;-2.084;2022-08-01T15:31:12;4.70;;;2.00;;
64282;SDS011;50497;50.720;-2.084;2022-08-01T15:33:38;5.38;;;2.00;;
64282;SDS011;50497;50.720;-2.084;2022-08-01T15:36:07;4.22;;;1.90;;
64282;SDS011;50497;50.720;-2.084;2022-08-01T15:38:37;4.40;;;2.00;;
64282;SDS011;50497;50.720;-2.084;2022-08-01T15:41:02;3.47;;;1.80;;
64282;SDS011;50497;50.720;-2.084;2022-08-01T15:43:28;5.35;;;2.13;;
64282;SDS011;50497;50.720;-2.084;2022-08-01T15:45:53;5.20;;;2.50;;
64282;SDS011;50497;50.720;-2.084;2022-08-01T15:48:19;5.95;;;2.22;;
64282;SDS011;50497;50.720;-2.084;2022-08-01T15:50:45;4.65;;;2.20;;
64282;SDS011;50497;50.720;-2.084;2022-08-01T15:53:10;5.00;;;2.15;;
64282;SDS011;50497;50.720;-2.084;2022-08-01T15:55:36;4.72;;;2.30;;
64282;SDS011;50497;50.720;-2.084;2022-08-01T15:58:07;5.32;;;2.10;;
64282;SDS011;50497;50.720;-2.084;2022-08-01T16:00:33;6.22;;;2.25;;
64282;SDS011;50497;50.720;-2.084;2022-08-01T16:02:59;4.22;;;2.20;;
64282;SDS011;50497;50.720;-2.084;2022-08-01T16:05:24;11.07;;;2.40;;
64282;SDS011;50497;50.720;-2.084;2022-08-01T16:07:51;5.13;;;2.00;;